Terminal Aerodrome Forecast
Issued by NWS Rapid City, SD

Home | Current Version | Previous Version | Text Only | Print | Product List | Glossary Off
Versions: 1 2 3 4 5 6 7 8 9 10 11 12 13 14 15 16 17 18

799
FTUS43 KUNR 221141
TAFRAP
TAF
KRAP 221141Z 2212/2312 27010KT P6SM SCT100 BKN200
     FM221600 33018G28KT P6SM SCT200
     FM230100 04010KT P6SM BKN040
     FM231000 03010KT 2SM -SN OVC015=

USA.gov is the U.S. government's official web portal to all federal, state and local government web resources and services.